Saint Albans Bay, Vermont
Current Conditions -  °F | °C
As of 4:55 PM on Monday 24 Nov 2014 (Local Time) from KFSO Reporting Station
Light Rain Light Rain  
Wind Chill: 64°   Ceiling: 10000
Heat Index: 64°   Visibility: 10mi
Dew Point: 57°   Wind: 12mph
Humidity: 76%   Direction: 180°S
Pressure: 29.33"   Gusts: 23mph
Location:  44.81°N, 73.14°W
Report Text: KFSO 242155Z AUTO 18010G20KT 140V210 10SM -RA SCT060 BKN100 BKN120 18/14 A2933 RMK AO2 T01800137
Loading
Personal Weather Stations






























Interactive Weather Map New forecast layout! Learn more

10-Day Weather Forecast

Advertisements
Track Severe Weather on mobile